createdAt,value
2023-02-27T07:22:32.610Z,17.60
2023-02-27T07:23:36.289Z,6.93
2023-02-27T07:24:40.163Z,9.90
2023-02-27T07:25:42.934Z,8.10
2023-02-27T07:26:45.731Z,8.97
2023-02-27T07:27:50.890Z,9.23
2023-02-27T07:28:55.029Z,7.80
2023-02-27T07:29:58.079Z,8.43
2023-02-27T07:31:01.102Z,8.18
2023-02-27T07:32:04.156Z,11.60
2023-02-27T07:33:07.373Z,8.05
2023-02-27T07:34:12.106Z,8.80
2023-02-27T07:35:14.926Z,8.18
2023-02-27T07:36:18.008Z,8.65
2023-02-27T07:37:20.997Z,6.43
2023-02-27T07:38:24.553Z,9.82
2023-02-27T07:39:27.689Z,10.25
2023-02-27T07:40:30.572Z,8.65
2023-02-27T07:41:33.574Z,8.45
2023-02-27T07:42:36.534Z,7.20
2023-02-27T07:43:39.251Z,7.90
2023-02-27T07:44:42.345Z,6.32
2023-02-27T07:45:45.448Z,11.98
2023-02-27T07:46:48.305Z,6.37
2023-02-27T07:47:51.120Z,7.40
2023-02-27T07:48:54.579Z,6.47
2023-02-27T07:49:57.994Z,7.03
2023-02-27T07:51:01.550Z,8.38
2023-02-27T07:52:04.518Z,7.12
2023-02-27T07:53:08.158Z,7.10
2023-02-27T07:54:11.202Z,6.43
2023-02-27T07:55:14.933Z,7.90
2023-02-27T07:56:18.423Z,17.85
2023-02-27T07:57:21.370Z,15.93
2023-02-27T07:58:27.761Z,12.53
2023-02-27T07:59:30.575Z,10.15
2023-02-27T08:00:34.502Z,8.75
2023-02-27T08:01:37.533Z,13.77
2023-02-27T08:02:40.955Z,8.48
2023-02-27T08:03:43.864Z,7.10
2023-02-27T08:04:46.735Z,8.68
2023-02-27T08:05:49.517Z,8.27
2023-02-27T08:06:52.558Z,8.90
2023-02-27T08:07:55.491Z,7.50
2023-02-27T08:08:58.358Z,5.53
2023-02-27T08:10:01.141Z,7.90
2023-02-27T08:11:04.186Z,6.45
2023-02-27T08:12:07.431Z,7.20
2023-02-27T08:13:10.316Z,5.80
2023-02-27T08:14:12.991Z,6.78
2023-02-27T08:15:17.151Z,9.32
2023-02-27T08:16:22.669Z,8.48
2023-02-27T08:17:26.041Z,8.00
2023-02-27T08:18:28.830Z,7.40
2023-02-27T08:19:31.966Z,7.87
2023-02-27T08:20:35.184Z,6.00
2023-02-27T08:21:38.369Z,7.00
2023-02-27T08:22:42.467Z,8.60
2023-02-27T08:23:45.719Z,13.15
2023-02-27T08:24:48.435Z,7.12
2023-02-27T08:25:51.487Z,7.90
2023-02-27T08:26:54.497Z,6.72
2023-02-27T08:27:57.602Z,5.90
2023-02-27T08:29:00.496Z,7.53
2023-02-27T08:30:04.720Z,10.10
2023-02-27T08:31:08.252Z,6.80
2023-02-27T08:32:11.660Z,5.80
2023-02-27T08:33:15.343Z,5.00
2023-02-27T08:34:18.207Z,6.57
2023-02-27T08:35:21.841Z,5.45
2023-02-27T08:36:25.479Z,6.70
2023-02-27T08:37:29.599Z,7.87
2023-02-27T08:38:33.436Z,6.47
2023-02-27T08:39:36.243Z,14.63
2023-02-27T08:40:39.113Z,9.23
2023-02-27T08:41:41.959Z,11.32
2023-02-27T08:42:45.063Z,9.38
2023-02-27T08:43:48.867Z,10.13
2023-02-27T08:44:51.855Z,8.23
2023-02-27T08:45:54.883Z,8.80
2023-02-27T08:46:57.808Z,5.65
2023-02-27T08:48:00.594Z,6.28
2023-02-27T08:49:03.771Z,5.72
2023-02-27T08:50:06.841Z,8.68
2023-02-27T08:51:10.255Z,9.90
2023-02-27T08:52:13.174Z,6.28
2023-02-27T08:53:15.968Z,7.50
2023-02-27T08:54:19.716Z,7.30
2023-02-27T08:55:22.526Z,7.35
2023-02-27T08:56:26.843Z,7.15
2023-02-27T08:57:29.939Z,9.25
2023-02-27T08:58:34.746Z,7.12
2023-02-27T08:59:38.086Z,8.18
2023-02-27T09:00:41.206Z,6.10
2023-02-27T09:01:45.030Z,8.10
2023-02-27T09:02:47.823Z,7.72
2023-02-27T09:03:51.050Z,7.22
2023-02-27T09:04:54.196Z,6.87
2023-02-27T09:05:57.073Z,6.45
2023-02-27T09:06:59.938Z,8.10
2023-02-27T09:08:03.795Z,6.37
2023-02-27T09:09:07.079Z,6.57
2023-02-27T09:10:10.856Z,6.80
2023-02-27T09:11:14.369Z,7.30
2023-02-27T09:12:17.103Z,8.20
2023-02-27T09:13:22.110Z,9.02
2023-02-27T09:14:24.962Z,11.45
2023-02-27T09:15:28.920Z,10.25
2023-02-27T09:16:32.061Z,6.70
2023-02-27T09:17:34.936Z,7.22
2023-02-27T09:18:37.836Z,7.78
2023-02-27T09:19:40.716Z,7.18
2023-02-27T09:20:43.852Z,9.60
2023-02-27T09:21:46.897Z,6.85
2023-02-27T09:22:49.952Z,7.40
2023-02-27T09:23:53.129Z,7.50
2023-02-27T09:24:56.201Z,8.48
2023-02-27T09:25:59.354Z,15.18
2023-02-27T09:27:02.146Z,8.32
2023-02-27T09:28:05.102Z,7.85
2023-02-27T09:29:07.995Z,12.63
2023-02-27T09:30:11.499Z,6.05
2023-02-27T09:31:17.717Z,15.13
2023-02-27T09:32:20.707Z,7.72
2023-02-27T09:33:24.846Z,13.30
2023-02-27T09:34:27.692Z,14.57
2023-02-27T09:35:30.522Z,9.73
2023-02-27T09:36:33.663Z,9.73
2023-02-27T09:37:37.125Z,8.40
2023-02-27T09:38:41.376Z,8.63
2023-02-27T09:39:46.249Z,5.75
2023-02-27T09:40:53.079Z,9.57
2023-02-27T09:41:56.086Z,13.70
2023-02-27T09:43:10.333Z,7.32
2023-02-27T09:44:36.334Z,14.47
2023-02-27T09:45:50.332Z,11.40
2023-02-27T09:46:54.333Z,5.30
2023-02-27T09:48:08.601Z,11.52
2023-02-27T09:49:15.127Z,9.18
2023-02-27T09:50:40.752Z,10.07
2023-02-27T09:51:43.582Z,7.90
2023-02-27T09:52:46.590Z,12.90
2023-02-27T09:53:56.992Z,16.42
2023-02-27T09:55:00.634Z,12.85
2023-02-27T09:56:33.298Z,10.07
2023-02-27T09:58:06.882Z,7.65
2023-02-27T09:59:12.804Z,7.25
2023-02-27T10:00:27.712Z,7.53
2023-02-27T10:01:41.004Z,8.43
2023-02-27T10:03:09.985Z,10.60
2023-02-27T10:04:31.093Z,20.60
2023-02-27T10:06:01.966Z,14.15
2023-02-27T10:07:25.142Z,10.07
2023-02-27T10:08:39.346Z,14.85
2023-02-27T10:10:04.826Z,10.87
2023-02-27T10:11:11.060Z,7.65
2023-02-27T10:12:17.077Z,13.98
2023-02-27T10:13:44.485Z,13.80
2023-02-27T10:14:59.901Z,8.48
2023-02-27T10:16:04.139Z,10.18
2023-02-27T10:17:15.734Z,9.27
2023-02-27T10:18:29.019Z,9.13
2023-02-27T10:19:37.755Z,12.57
2023-02-27T10:20:58.765Z,9.45
2023-02-27T10:22:08.564Z,7.73
2023-02-27T10:23:19.339Z,7.60
2023-02-27T10:24:30.439Z,21.15
2023-02-27T10:25:38.228Z,11.57
2023-02-27T10:26:42.829Z,25.98
2023-02-27T10:27:53.716Z,16.95
2023-02-27T10:28:59.270Z,10.85
2023-02-27T10:30:29.986Z,10.75
2023-02-27T10:31:36.142Z,8.93
2023-02-27T10:32:40.350Z,11.32
2023-02-27T10:33:45.286Z,7.40
2023-02-27T10:34:58.915Z,9.63
2023-02-27T10:36:03.534Z,6.05
2023-02-27T10:37:07.334Z,10.10
2023-02-27T10:38:18.854Z,9.70
2023-02-27T10:39:23.317Z,9.20
2023-02-27T10:40:27.062Z,8.40
2023-02-27T10:41:30.823Z,7.80
2023-02-27T10:42:39.144Z,11.63
2023-02-27T10:43:43.664Z,13.30
2023-02-27T10:44:53.596Z,11.33
2023-02-27T10:45:56.848Z,10.53
2023-02-27T10:47:00.152Z,10.55
2023-02-27T10:48:04.776Z,10.07
2023-02-27T10:49:19.134Z,10.75
2023-02-27T10:50:26.042Z,9.95
2023-02-27T10:51:38.509Z,8.18
2023-02-27T10:53:00.723Z,8.35
2023-02-27T10:54:21.964Z,8.63
2023-02-27T10:55:33.708Z,9.05
2023-02-27T10:56:37.337Z,7.70
2023-02-27T10:57:43.757Z,7.10
2023-02-27T10:58:47.058Z,6.68
2023-02-27T10:59:53.711Z,9.63
2023-02-27T11:00:59.386Z,8.43
2023-02-27T11:02:06.267Z,10.13
2023-02-27T11:03:25.064Z,8.23
2023-02-27T11:04:39.638Z,8.38
2023-02-27T11:05:42.476Z,8.20
2023-02-27T11:06:52.673Z,10.23
2023-02-27T11:07:57.859Z,10.23
2023-02-27T11:09:27.332Z,7.93
2023-02-27T11:10:30.459Z,8.25
2023-02-27T11:11:33.438Z,7.22
2023-02-27T11:12:36.318Z,10.65
2023-02-27T11:13:45.642Z,10.40
2023-02-27T11:14:53.877Z,7.87
2023-02-27T11:16:06.456Z,7.87
2023-02-27T11:17:22.425Z,8.70
2023-02-27T11:18:28.800Z,7.50
2023-02-27T11:19:37.519Z,6.53
2023-02-27T11:20:43.536Z,10.33
2023-02-27T11:22:07.439Z,7.72
2023-02-27T11:23:25.988Z,10.70
2023-02-27T11:24:29.382Z,7.40
2023-02-27T11:25:33.688Z,7.00
2023-02-27T11:26:39.268Z,11.32
2023-02-27T11:27:42.814Z,7.85
2023-02-27T11:28:45.666Z,8.05
2023-02-27T11:30:02.513Z,9.48
2023-02-27T11:31:22.335Z,6.30
2023-02-27T11:32:29.929Z,7.60
2023-02-27T11:33:40.455Z,7.93
2023-02-27T11:34:50.932Z,7.75
2023-02-27T11:35:58.004Z,6.93
2023-02-27T11:37:08.024Z,7.90
2023-02-27T11:38:25.675Z,8.90
2023-02-27T11:39:37.075Z,12.45
2023-02-27T11:40:50.378Z,10.02
2023-02-27T11:41:56.770Z,8.45
2023-02-27T11:43:05.215Z,12.90
2023-02-27T11:44:17.897Z,6.67
2023-02-27T11:46:04.667Z,6.68
2023-02-27T11:47:17.004Z,8.05
2023-02-27T11:48:22.035Z,7.28
2023-02-27T11:49:37.336Z,7.28
2023-02-27T11:50:53.749Z,12.43
2023-02-27T11:52:07.204Z,12.27
2023-02-27T11:53:24.709Z,11.90
2023-02-27T11:54:38.964Z,10.80
2023-02-27T11:55:43.033Z,6.67
2023-02-27T11:57:00.314Z,18.23
2023-02-27T11:58:12.934Z,8.05
2023-02-27T11:59:27.597Z,7.18
2023-02-27T12:00:39.884Z,6.25
2023-02-27T12:01:56.206Z,10.82
2023-02-27T12:03:36.377Z,14.32
2023-02-27T12:04:59.868Z,10.25
2023-02-27T12:06:13.760Z,11.55
2023-02-27T12:08:12.825Z,10.55
2023-02-27T12:09:34.822Z,7.07
2023-02-27T12:10:49.748Z,8.53
2023-02-27T12:11:53.562Z,7.37
2023-02-27T12:13:06.639Z,10.13
2023-02-27T12:14:14.264Z,8.45
2023-02-27T12:15:41.768Z,8.93
2023-02-27T12:16:57.037Z,12.32
2023-02-27T12:18:13.053Z,8.23
2023-02-27T12:19:18.663Z,6.78
2023-02-27T12:20:34.335Z,7.80
2023-02-27T12:21:42.408Z,7.83
2023-02-27T12:22:49.253Z,8.37
2023-02-27T12:24:13.968Z,6.80
2023-02-27T12:25:37.910Z,9.68
2023-02-27T12:26:47.190Z,11.77
2023-02-27T12:27:59.267Z,10.48
2023-02-27T12:29:13.678Z,15.95
2023-02-27T12:30:22.644Z,6.82
2023-02-27T12:31:32.671Z,6.50
2023-02-27T12:33:11.185Z,7.12
2023-02-27T12:34:35.801Z,8.87
2023-02-27T12:35:40.828Z,7.27
2023-02-27T12:36:44.272Z,9.55
2023-02-27T12:37:47.837Z,12.70
2023-02-27T12:38:52.547Z,7.75
2023-02-27T12:39:59.524Z,6.75
2023-02-27T12:41:11.261Z,7.57
2023-02-27T12:42:20.224Z,9.18
2023-02-27T12:43:41.479Z,8.02
2023-02-27T12:45:15.642Z,7.40
2023-02-27T12:46:42.366Z,10.13
2023-02-27T12:48:03.425Z,8.10
2023-02-27T12:49:15.356Z,6.75
2023-02-27T12:50:19.835Z,8.27
2023-02-27T12:51:31.811Z,7.10
2023-02-27T12:52:43.626Z,7.40
2023-02-27T12:54:05.383Z,9.90
2023-02-27T12:55:21.093Z,10.30
2023-02-27T12:56:34.362Z,10.48
2023-02-27T12:57:44.950Z,6.57
2023-02-27T12:59:19.598Z,7.80
2023-02-27T13:00:26.761Z,8.10
2023-02-27T13:01:48.094Z,7.20
2023-02-27T13:03:17.670Z,7.72
2023-02-27T13:04:23.368Z,11.55
2023-02-27T13:05:49.007Z,16.40
2023-02-27T13:07:04.428Z,11.93
2023-02-27T13:08:32.256Z,7.93
2023-02-27T13:09:47.762Z,8.55
2023-02-27T13:11:02.801Z,11.18
2023-02-27T13:12:34.594Z,10.77
2023-02-27T13:13:48.074Z,9.03
2023-02-27T13:15:04.208Z,15.88
2023-02-27T13:16:15.907Z,10.70
2023-02-27T13:17:34.289Z,23.27
2023-02-27T13:18:59.490Z,16.80
2023-02-27T13:20:27.155Z,20.48
2023-02-27T13:21:39.977Z,13.77
2023-02-27T13:22:58.826Z,18.27
2023-02-27T13:24:17.036Z,11.73
2023-02-27T13:25:20.588Z,10.20
2023-02-27T13:26:29.560Z,14.03
2023-02-27T13:27:38.314Z,22.08
2023-02-27T13:28:41.907Z,41.60
2023-02-27T13:29:59.468Z,21.45
2023-02-27T13:31:19.681Z,19.33
2023-02-27T13:32:43.755Z,23.17
2023-02-27T13:34:08.825Z,18.77
2023-02-27T13:35:32.649Z,13.77
2023-02-27T13:36:46.833Z,11.77
2023-02-27T13:38:05.598Z,16.50
2023-02-27T13:39:41.403Z,11.70
2023-02-27T13:40:44.192Z,10.32
2023-02-27T13:41:46.998Z,16.27
2023-02-27T13:42:49.759Z,13.45
2023-02-27T13:43:57.192Z,8.57
2023-02-27T13:45:02.240Z,12.88
2023-02-27T13:46:28.452Z,7.07
2023-02-27T13:47:31.116Z,11.80
2023-02-27T13:48:33.848Z,9.75
2023-02-27T13:49:43.098Z,9.23
2023-02-27T13:50:50.453Z,9.53
2023-02-27T13:51:54.760Z,7.87
2023-02-27T13:53:09.662Z,9.50
2023-02-27T13:54:15.639Z,8.45
2023-02-27T13:55:27.412Z,8.23
2023-02-27T13:56:30.550Z,11.45
2023-02-27T13:57:37.311Z,13.43
2023-02-27T13:58:41.271Z,13.20
2023-02-27T13:59:53.199Z,13.90
2023-02-27T14:01:00.093Z,8.73
2023-02-27T14:02:11.843Z,9.97
2023-02-27T14:03:22.114Z,8.55
2023-02-27T14:04:28.588Z,11.93
2023-02-27T14:05:36.244Z,8.40
2023-02-27T14:06:45.829Z,19.05
2023-02-27T14:08:14.263Z,16.20
2023-02-27T14:09:22.274Z,13.85
2023-02-27T14:10:28.739Z,8.38
2023-02-27T14:11:34.531Z,8.75
2023-02-27T14:12:45.746Z,10.33
2023-02-27T14:13:56.935Z,12.00
2023-02-27T14:15:01.748Z,21.67
2023-02-27T14:16:06.091Z,11.65
2023-02-27T14:17:11.950Z,8.55
2023-02-27T14:18:57.317Z,8.25
2023-02-27T14:20:01.048Z,8.23
2023-02-27T14:21:03.996Z,9.13
2023-02-27T14:22:47.649Z,7.65
2023-02-27T14:23:50.434Z,8.48
2023-02-27T14:25:06.764Z,10.13
2023-02-27T14:26:21.243Z,9.03
2023-02-27T14:27:26.888Z,9.50
2023-02-27T14:28:46.528Z,9.02
2023-02-27T14:29:52.244Z,8.45
2023-02-27T14:31:04.416Z,10.55
2023-02-27T14:32:08.616Z,7.72
2023-02-27T14:33:37.584Z,9.15
2023-02-27T14:34:42.387Z,9.60
2023-02-27T14:35:57.089Z,8.05
2023-02-27T14:37:02.452Z,9.43
2023-02-27T14:38:11.263Z,8.80
2023-02-27T14:39:33.592Z,10.65
2023-02-27T14:40:43.829Z,10.65
2023-02-27T14:41:52.090Z,15.57
2023-02-27T14:43:18.080Z,10.95
2023-02-27T14:44:28.045Z,9.57
2023-02-27T14:45:31.655Z,8.85
2023-02-27T14:46:41.371Z,8.40
2023-02-27T14:47:45.824Z,9.88
2023-02-27T14:48:54.094Z,7.53
2023-02-27T14:49:57.622Z,9.63
2023-02-27T14:51:02.022Z,9.90
2023-02-27T14:52:12.800Z,13.18
2023-02-27T14:53:25.342Z,14.68
2023-02-27T14:54:28.511Z,12.75
2023-02-27T14:55:34.067Z,11.25
2023-02-27T14:56:36.896Z,10.65
2023-02-27T14:57:40.193Z,9.40
2023-02-27T14:58:55.562Z,10.43
2023-02-27T15:00:06.598Z,9.10
2023-02-27T15:01:10.960Z,8.80
2023-02-27T15:02:28.855Z,10.32
2023-02-27T15:03:37.629Z,10.82
2023-02-27T15:04:40.796Z,10.57
2023-02-27T15:05:44.077Z,8.02
2023-02-27T15:06:50.366Z,8.68
2023-02-27T15:07:53.995Z,7.75
2023-02-27T15:08:57.410Z,7.82
2023-02-27T15:10:04.473Z,10.82
2023-02-27T15:11:13.848Z,7.50
2023-02-27T15:12:20.088Z,9.37
2023-02-27T15:13:32.599Z,12.07
2023-02-27T15:14:40.422Z,10.32
2023-02-27T15:15:43.509Z,10.82
2023-02-27T15:16:47.216Z,7.80
2023-02-27T15:17:54.656Z,9.15
2023-02-27T15:19:05.286Z,11.10
2023-02-27T15:20:31.397Z,14.15
2023-02-27T15:21:40.423Z,13.80
2023-02-27T15:22:43.191Z,11.77
2023-02-27T15:23:57.374Z,12.63
2023-02-27T15:25:01.271Z,13.60
2023-02-27T15:26:04.508Z,12.40
2023-02-27T15:27:11.408Z,9.52
2023-02-27T15:28:23.509Z,25.92
2023-02-27T15:29:42.530Z,14.73
2023-02-27T15:30:50.533Z,18.62
2023-02-27T15:31:54.091Z,82.75
2023-02-27T15:32:57.774Z,18.40
2023-02-27T15:34:02.320Z,12.07
2023-02-27T15:35:30.145Z,18.02
2023-02-27T15:36:35.876Z,36.92
2023-02-27T15:37:39.524Z,18.45
2023-02-27T15:38:42.754Z,28.25
2023-02-27T15:42:14.457Z,22.80
2023-02-27T15:43:18.961Z,20.05
2023-02-27T15:44:27.781Z,14.85
2023-02-27T15:45:36.217Z,21.70
2023-02-27T15:46:39.382Z,31.73
2023-02-27T15:47:44.799Z,34.65
2023-02-27T15:48:53.972Z,33.92
2023-02-27T15:50:09.001Z,19.73
2023-02-27T15:51:12.223Z,92.88
2023-02-27T15:52:26.564Z,43.80
2023-02-27T15:53:34.141Z,116.07
2023-02-27T15:54:43.114Z,92.45
2023-02-27T15:56:01.016Z,24.35
2023-02-27T15:57:05.681Z,34.22
2023-02-27T15:58:30.707Z,13.57
2023-02-27T15:59:37.596Z,100.43
2023-02-27T16:00:42.376Z,52.85
2023-02-27T16:01:58.208Z,19.02
2023-02-27T16:03:02.316Z,20.08
2023-02-27T16:04:20.663Z,133.52
2023-02-27T16:05:36.190Z,78.50
2023-02-27T16:06:41.360Z,30.02
2023-02-27T16:07:45.583Z,37.65
2023-02-27T16:09:01.792Z,47.72
2023-02-27T16:10:17.487Z,21.87
2023-02-27T16:11:28.150Z,18.05
2023-02-27T16:12:38.232Z,20.23
2023-02-27T16:13:41.983Z,30.15
2023-02-27T16:14:45.512Z,17.45
2023-02-27T16:16:00.480Z,15.52
2023-02-27T16:17:04.264Z,19.10
2023-02-27T16:18:08.239Z,31.75
2023-02-27T16:19:46.092Z,31.17
2023-02-27T16:20:55.039Z,48.17
2023-02-27T16:22:07.064Z,16.00
2023-02-27T16:23:09.923Z,21.50
2023-02-27T16:24:29.955Z,33.85
2023-02-27T16:25:34.832Z,20.85
2023-02-27T16:26:37.951Z,17.37
2023-02-27T16:27:50.167Z,20.48
2023-02-27T16:29:14.138Z,23.85
2023-02-27T16:30:20.169Z,28.15
2023-02-27T16:31:47.038Z,22.90
2023-02-27T16:33:00.112Z,47.10
2023-02-27T16:34:14.054Z,38.17
2023-02-27T16:35:24.233Z,22.95
2023-02-27T16:36:30.792Z,19.85
2023-02-27T16:37:40.482Z,21.58
2023-02-27T16:38:44.210Z,11.05
2023-02-27T16:39:50.138Z,15.35
2023-02-27T16:40:56.596Z,16.87
2023-02-27T16:42:02.613Z,21.90
2023-02-27T16:43:07.320Z,18.12
2023-02-27T16:44:11.426Z,14.43
2023-02-27T16:45:17.389Z,25.60
2023-02-27T16:46:22.040Z,38.30
2023-02-27T16:47:28.957Z,35.80
2023-02-27T16:48:32.325Z,33.85
2023-02-27T16:49:35.956Z,39.15
2023-02-27T16:50:43.104Z,66.60
2023-02-27T16:51:47.505Z,53.90
2023-02-27T16:52:51.117Z,49.88
2023-02-27T16:53:56.707Z,52.70
2023-02-27T16:54:59.782Z,42.83
2023-02-27T16:56:03.124Z,16.07
2023-02-27T16:57:06.644Z,16.00
2023-02-27T16:58:17.057Z,13.07
2023-02-27T16:59:26.974Z,10.23
2023-02-27T17:00:36.478Z,12.55
2023-02-27T17:01:39.683Z,17.45
2023-02-27T17:02:45.086Z,20.92
2023-02-27T17:03:49.078Z,14.85
2023-02-27T17:04:52.446Z,17.73
2023-02-27T17:05:58.518Z,36.78
2023-02-27T17:07:07.789Z,27.80
2023-02-27T17:08:13.003Z,26.53
2023-02-27T17:09:16.673Z,30.10
2023-02-27T17:10:22.469Z,34.83
2023-02-27T17:11:25.227Z,36.85
2023-02-27T17:12:28.847Z,26.25
2023-02-27T17:13:36.603Z,34.20
2023-02-27T17:14:39.866Z,32.28
2023-02-27T17:15:43.134Z,36.47
2023-02-27T17:16:47.926Z,28.67
2023-02-27T17:17:52.573Z,22.47
2023-02-27T17:18:58.280Z,17.60
2023-02-27T17:20:02.052Z,23.12
2023-02-27T17:21:05.701Z,16.92
2023-02-27T17:22:09.198Z,12.73
2023-02-27T17:23:14.414Z,14.60
2023-02-27T17:24:18.238Z,10.63
2023-02-27T17:25:23.428Z,12.30
2023-02-27T17:26:27.448Z,12.30
2023-02-27T17:27:30.880Z,15.85
2023-02-27T17:28:34.317Z,15.43
2023-02-27T17:29:39.332Z,11.20
2023-02-27T17:30:43.001Z,11.40
2023-02-27T17:31:46.752Z,12.00
2023-02-27T17:32:51.489Z,12.88
2023-02-27T17:33:55.684Z,18.75
2023-02-27T17:34:59.456Z,32.95
2023-02-27T17:36:10.888Z,25.20
2023-02-27T17:37:15.627Z,17.95
2023-02-27T17:38:19.557Z,13.23
2023-02-27T17:39:23.578Z,10.83
2023-02-27T17:40:27.810Z,15.30
2023-02-27T17:41:32.969Z,16.42
2023-02-27T17:42:37.788Z,19.12
2023-02-27T17:43:43.683Z,21.42
2023-02-27T17:44:48.969Z,24.20
2023-02-27T17:45:53.141Z,17.45
2023-02-27T17:46:57.457Z,13.07
2023-02-27T17:48:01.834Z,13.35
2023-02-27T17:49:06.302Z,14.45
2023-02-27T17:50:11.025Z,14.60
2023-02-27T17:51:18.929Z,14.63
2023-02-27T17:52:22.831Z,15.27
2023-02-27T17:53:27.075Z,13.10
2023-02-27T17:54:31.791Z,17.45
2023-02-27T17:55:37.070Z,34.38
2023-02-27T17:56:43.861Z,30.05
2023-02-27T17:57:48.002Z,19.77
2023-02-27T17:58:53.070Z,20.35
2023-02-27T17:59:58.922Z,21.08
2023-02-27T18:01:12.523Z,42.07
2023-02-27T18:02:17.913Z,52.45
2023-02-27T18:03:26.607Z,42.05
2023-02-27T18:04:31.760Z,30.00
2023-02-27T18:05:36.007Z,29.85
2023-02-27T18:06:40.480Z,40.33
2023-02-27T18:07:44.631Z,81.40
2023-02-27T18:08:48.879Z,88.93
2023-02-27T18:09:53.820Z,86.97
2023-02-27T18:10:59.102Z,60.75
2023-02-27T18:12:04.354Z,60.90
2023-02-27T18:13:08.859Z,54.22
2023-02-27T18:14:15.112Z,74.85
2023-02-27T18:15:21.622Z,101.20
2023-02-27T18:16:28.071Z,127.05
2023-02-27T18:17:33.250Z,80.25
2023-02-27T18:18:39.683Z,66.15
2023-02-27T18:19:44.112Z,32.22
2023-02-27T18:20:48.509Z,22.58
2023-02-27T18:21:52.350Z,25.17
2023-02-27T18:22:56.610Z,26.30
2023-02-27T18:24:00.956Z,47.10
2023-02-27T18:25:05.875Z,37.15
2023-02-27T18:26:27.078Z,19.75
2023-02-27T18:27:39.318Z,20.70
2023-02-27T18:28:43.683Z,23.87
2023-02-27T18:29:49.741Z,21.30
2023-02-27T18:30:55.300Z,22.85
2023-02-27T18:32:00.952Z,37.67
2023-02-27T18:33:07.951Z,17.33
2023-02-27T18:34:15.328Z,13.30
2023-02-27T18:35:23.593Z,13.88
2023-02-27T18:36:28.252Z,12.43
2023-02-27T18:37:32.987Z,14.27
2023-02-27T18:38:38.256Z,14.32
2023-02-27T18:39:45.158Z,11.48
2023-02-27T18:40:52.991Z,17.85
2023-02-27T18:41:56.555Z,11.90
2023-02-27T18:43:04.956Z,11.73
2023-02-27T18:44:15.582Z,14.30
2023-02-27T18:45:23.347Z,12.67
2023-02-27T18:46:35.919Z,12.73
2023-02-27T18:47:46.054Z,21.15
2023-02-27T18:48:51.437Z,11.93
2023-02-27T18:50:03.530Z,12.85
2023-02-27T18:51:27.786Z,19.67
2023-02-27T18:52:42.703Z,24.40
2023-02-27T18:53:50.528Z,25.15
2023-02-27T18:54:54.478Z,19.10
2023-02-27T18:56:03.235Z,12.68
2023-02-27T18:57:07.427Z,15.40
2023-02-27T18:58:15.199Z,17.50
2023-02-27T18:59:19.443Z,16.98
2023-02-27T19:00:24.734Z,14.65
2023-02-27T19:01:32.323Z,18.12
2023-02-27T19:02:41.896Z,13.55
2023-02-27T19:03:46.673Z,22.30
2023-02-27T19:04:52.213Z,14.80
2023-02-27T19:05:56.505Z,18.87
2023-02-27T19:07:01.079Z,35.67
2023-02-27T19:08:05.304Z,21.27
2023-02-27T19:09:12.969Z,21.62
2023-02-27T19:10:17.306Z,30.48
2023-02-27T19:11:24.215Z,15.93
2023-02-27T19:12:27.928Z,22.95
2023-02-27T19:13:33.293Z,24.27
2023-02-27T19:14:38.608Z,18.90
2023-02-27T19:15:42.753Z,19.40
2023-02-27T19:16:46.986Z,19.10
2023-02-27T19:17:53.053Z,17.00
2023-02-27T19:18:58.861Z,16.07
2023-02-27T19:20:04.382Z,17.25
2023-02-27T19:21:09.826Z,12.05
2023-02-27T19:22:13.624Z,15.73
2023-02-27T19:23:17.780Z,18.80
2023-02-27T19:24:23.695Z,24.15
2023-02-27T19:25:27.814Z,23.33
2023-02-27T19:26:34.720Z,27.45
2023-02-27T19:27:39.715Z,33.65
2023-02-27T19:28:44.044Z,28.20
2023-02-27T19:29:48.624Z,30.37
2023-02-27T19:30:53.208Z,29.17
2023-02-27T19:31:56.687Z,53.92
2023-02-27T19:33:01.391Z,22.10
2023-02-27T19:34:06.154Z,27.55
2023-02-27T19:35:14.916Z,28.83
2023-02-27T19:36:22.906Z,32.42
2023-02-27T19:37:28.298Z,34.05
2023-02-27T19:38:33.683Z,21.70
2023-02-27T19:39:38.100Z,16.15
2023-02-27T19:40:41.930Z,23.20
2023-02-27T19:41:46.531Z,32.38
2023-02-27T19:42:50.898Z,25.00
2023-02-27T19:43:55.793Z,15.20
2023-02-27T19:45:01.436Z,28.38
2023-02-27T19:46:11.339Z,17.65
2023-02-27T19:47:15.260Z,16.55
2023-02-27T19:48:20.458Z,15.65
2023-02-27T19:49:24.977Z,14.57
2023-02-27T19:50:30.997Z,20.35
2023-02-27T19:51:36.869Z,13.53
2023-02-27T19:52:41.901Z,12.82
2023-02-27T19:53:49.199Z,11.63
2023-02-27T19:54:55.018Z,13.20
2023-02-27T19:56:04.264Z,20.25
2023-02-27T19:57:09.249Z,20.02
2023-02-27T19:58:14.888Z,13.90
2023-02-27T19:59:25.897Z,52.40
2023-02-27T20:00:32.989Z,19.25
2023-02-27T20:01:39.540Z,12.82
2023-02-27T20:02:43.940Z,32.27
2023-02-27T20:03:48.173Z,15.32
2023-02-27T20:04:52.035Z,27.37
2023-02-27T20:05:56.679Z,20.40
2023-02-27T20:07:02.723Z,48.75
2023-02-27T20:08:07.204Z,40.45
2023-02-27T20:09:16.122Z,42.70
2023-02-27T20:10:25.063Z,15.65
2023-02-27T20:11:33.342Z,22.05
2023-02-27T20:12:37.932Z,15.13
2023-02-27T20:13:41.497Z,16.10
2023-02-27T20:14:44.846Z,19.35
2023-02-27T20:16:08.799Z,17.70
2023-02-27T20:17:17.111Z,13.13
2023-02-27T20:18:23.409Z,11.38
2023-02-27T20:19:29.041Z,13.48
2023-02-27T20:20:34.599Z,13.98
2023-02-27T20:21:39.879Z,13.23
2023-02-27T20:22:46.522Z,14.18
2023-02-27T20:23:54.607Z,15.00
2023-02-27T20:25:00.530Z,12.97
2023-02-27T20:26:33.422Z,12.13
2023-02-27T20:27:38.715Z,12.25
2023-02-27T20:28:43.667Z,19.70
2023-02-27T20:29:55.843Z,12.80
2023-02-27T20:30:59.925Z,20.60
2023-02-27T20:32:04.633Z,11.65
2023-02-27T20:33:08.822Z,15.02
2023-02-27T20:34:16.968Z,11.02
2023-02-27T20:35:21.521Z,12.15
2023-02-27T20:36:25.908Z,13.20
2023-02-27T20:37:33.119Z,11.68
2023-02-27T20:38:40.487Z,11.48
2023-02-27T20:39:45.899Z,11.40
2023-02-27T20:40:50.503Z,8.52
2023-02-27T20:41:55.806Z,10.73
2023-02-27T20:42:59.925Z,14.07
2023-02-27T20:44:05.653Z,13.27
2023-02-27T20:45:09.587Z,11.70
2023-02-27T20:46:21.250Z,16.50
2023-02-27T20:47:26.131Z,15.70
2023-02-27T20:48:29.989Z,11.50
2023-02-27T20:49:34.385Z,12.45
2023-02-27T20:50:38.626Z,11.48
2023-02-27T20:51:43.638Z,12.50
2023-02-27T20:52:47.890Z,12.45
2023-02-27T20:53:55.798Z,10.20
2023-02-27T20:55:01.348Z,11.38
2023-02-27T20:56:06.814Z,11.98
2023-02-27T20:57:11.431Z,9.15
2023-02-27T20:58:18.602Z,11.80
2023-02-27T20:59:25.155Z,11.55
2023-02-27T21:00:32.798Z,10.05
2023-02-27T21:01:38.466Z,11.70
2023-02-27T21:02:42.748Z,9.13
2023-02-27T21:03:47.585Z,7.82
2023-02-27T21:04:53.557Z,9.70
2023-02-27T21:06:00.309Z,12.10
2023-02-27T21:07:04.212Z,13.20
2023-02-27T21:08:07.798Z,11.60
2023-02-27T21:09:11.148Z,10.67
2023-02-27T21:10:16.245Z,9.38
2023-02-27T21:11:26.828Z,11.23
2023-02-27T21:12:30.650Z,14.55
2023-02-27T21:13:34.303Z,9.68
2023-02-27T21:14:38.036Z,10.23
2023-02-27T21:15:41.503Z,9.98
2023-02-27T21:16:45.019Z,8.95
2023-02-27T21:17:49.171Z,9.70
2023-02-27T21:18:54.288Z,9.75
2023-02-27T21:19:57.612Z,10.50
2023-02-27T21:21:08.946Z,9.73
2023-02-27T21:22:12.174Z,9.48
2023-02-27T21:23:15.101Z,10.90
2023-02-27T21:24:18.971Z,11.75
2023-02-27T21:25:23.805Z,10.05
2023-02-27T21:26:35.315Z,10.52
2023-02-27T21:27:38.914Z,10.60
2023-02-27T21:28:47.906Z,10.02
2023-02-27T21:29:52.911Z,11.95
2023-02-27T21:31:03.961Z,10.30
2023-02-27T21:32:11.108Z,8.63
2023-02-27T21:33:14.319Z,9.35
2023-02-27T21:35:00.756Z,9.30
2023-02-27T21:36:04.531Z,10.82
2023-02-27T21:37:10.276Z,9.77
2023-02-27T21:38:14.600Z,10.00
2023-02-27T21:39:23.403Z,11.25
2023-02-27T21:40:26.542Z,9.68
2023-02-27T21:41:30.822Z,10.40
2023-02-27T21:42:33.999Z,8.87
2023-02-27T21:43:37.054Z,9.65
2023-02-27T21:44:40.320Z,11.70
2023-02-27T21:45:47.782Z,11.35
2023-02-27T21:46:51.149Z,11.57
2023-02-27T21:47:54.146Z,10.38
2023-02-27T21:48:57.523Z,9.23
2023-02-27T21:50:00.311Z,9.57
2023-02-27T21:51:04.863Z,9.77
2023-02-27T21:52:08.026Z,10.48
2023-02-27T21:53:11.182Z,8.37
2023-02-27T21:54:15.600Z,10.20
2023-02-27T21:55:18.542Z,10.52
2023-02-27T21:56:21.352Z,10.32
2023-02-27T21:57:24.658Z,9.13
2023-02-27T21:58:27.623Z,11.15
2023-02-27T21:59:31.149Z,9.85
2023-02-27T22:00:37.194Z,11.30
2023-02-27T22:01:40.815Z,9.77
2023-02-27T22:02:43.639Z,19.55
2023-02-27T22:03:48.687Z,25.57
2023-02-27T22:04:51.749Z,12.48
2023-02-27T22:05:54.624Z,27.17
2023-02-27T22:06:57.760Z,12.32
2023-02-27T22:08:00.469Z,11.80
2023-02-27T22:09:07.179Z,10.23
2023-02-27T22:10:10.600Z,8.65
2023-02-27T22:13:35.852Z,9.35
2023-02-27T22:14:39.680Z,12.20
2023-02-27T22:15:42.761Z,11.23